createdAt,value
2023-05-01T00:01:57.461Z,62.23
2023-05-01T00:04:25.511Z,61.63
2023-05-01T00:06:53.742Z,66.37
2023-05-01T00:09:21.866Z,65.87
2023-05-01T00:11:49.938Z,66.00
2023-05-01T00:14:18.027Z,67.60
2023-05-01T00:16:46.568Z,60.97
2023-05-01T00:19:18.492Z,63.83
2023-05-01T00:21:47.970Z,61.47
2023-05-01T00:24:17.069Z,64.53
2023-05-01T00:26:45.495Z,65.13
2023-05-01T00:29:13.889Z,69.10
2023-05-01T00:31:42.776Z,64.97
2023-05-01T00:34:11.384Z,65.13
2023-05-01T00:36:41.101Z,67.30
2023-05-01T00:39:09.276Z,68.30
2023-05-01T00:41:37.597Z,61.20
2023-05-01T00:44:05.785Z,61.17
2023-05-01T00:46:38.019Z,63.70
2023-05-01T00:49:06.132Z,60.33
2023-05-01T00:51:34.984Z,60.93
2023-05-01T00:54:04.752Z,55.93
2023-05-01T00:56:33.095Z,51.47
2023-05-01T00:59:01.237Z,51.87
2023-05-01T01:01:29.722Z,49.77
2023-05-01T01:03:57.807Z,61.50
2023-05-01T01:06:46.422Z,53.17
2023-05-01T01:09:24.612Z,51.13
2023-05-01T01:12:03.312Z,54.17
2023-05-01T01:14:34.753Z,58.83
2023-05-01T01:17:13.717Z,49.47
2023-05-01T01:20:09.007Z,52.53
2023-05-01T01:22:39.534Z,54.80
2023-05-01T01:25:37.744Z,52.83
2023-05-01T01:28:18.922Z,50.30
2023-05-01T01:31:12.103Z,52.50
2023-05-01T01:34:09.430Z,48.40
2023-05-01T01:36:44.082Z,47.20
2023-05-01T01:39:24.536Z,53.00
2023-05-01T01:41:54.581Z,49.67
2023-05-01T01:44:29.075Z,55.80
2023-05-01T01:47:00.345Z,49.03
2023-05-01T01:49:32.528Z,46.20
2023-05-01T01:52:04.035Z,49.87
2023-05-01T01:54:36.454Z,50.10
2023-05-01T01:57:06.064Z,47.40
2023-05-01T01:59:36.320Z,45.43
2023-05-01T02:02:05.966Z,49.43
2023-05-01T02:04:37.441Z,43.30
2023-05-01T02:07:07.652Z,43.77
2023-05-01T02:09:36.499Z,44.50
2023-05-01T02:12:06.172Z,40.40
2023-05-01T02:14:35.085Z,43.57
2023-05-01T02:17:04.057Z,41.90
2023-05-01T02:19:35.590Z,40.40
2023-05-01T02:22:06.087Z,41.40
2023-05-01T02:24:35.440Z,40.13
2023-05-01T02:27:09.540Z,37.37
2023-05-01T02:29:37.836Z,38.93
2023-05-01T02:32:06.381Z,37.97
2023-05-01T02:34:37.395Z,36.50
2023-05-01T02:37:07.365Z,33.17
2023-05-01T02:39:35.877Z,36.23
2023-05-01T02:42:05.832Z,31.97
2023-05-01T02:44:40.807Z,32.63
2023-05-01T02:47:11.873Z,34.00
2023-05-01T02:49:43.836Z,33.53
2023-05-01T02:52:13.682Z,34.23
2023-05-01T02:54:41.861Z,34.50
2023-05-01T02:57:11.456Z,34.10
2023-05-01T02:59:40.381Z,34.43
2023-05-01T03:02:08.491Z,31.77
2023-05-01T03:04:36.833Z,33.83
2023-05-01T03:07:06.645Z,36.00
2023-05-01T03:09:34.706Z,34.23
2023-05-01T03:12:03.832Z,32.87
2023-05-01T03:14:31.867Z,32.17
2023-05-01T03:16:59.932Z,34.43
2023-05-01T03:19:28.163Z,36.57
2023-05-01T03:21:56.182Z,31.77
2023-05-01T03:24:25.665Z,33.70
2023-05-01T03:26:53.678Z,33.70
2023-05-01T03:29:21.725Z,33.67
2023-05-01T03:31:49.873Z,32.60
2023-05-01T03:34:19.288Z,31.67
2023-05-01T03:36:47.258Z,26.30
2023-05-01T03:39:15.398Z,32.23
2023-05-01T03:41:44.784Z,28.87
2023-05-01T03:44:12.893Z,28.07
2023-05-01T03:46:41.367Z,28.20
2023-05-01T03:49:09.434Z,27.77
2023-05-01T03:51:37.480Z,29.80
2023-05-01T03:54:05.550Z,28.13
2023-05-01T03:56:35.669Z,29.33
2023-05-01T03:59:05.247Z,31.67
2023-05-01T04:01:33.638Z,29.47
2023-05-01T04:04:02.323Z,29.43
2023-05-01T04:06:30.983Z,31.63
2023-05-01T04:08:59.016Z,29.37
2023-05-01T04:11:27.214Z,33.03
2023-05-01T04:13:55.227Z,29.67
2023-05-01T04:16:24.778Z,28.63
2023-05-01T04:18:52.973Z,28.00
2023-05-01T04:21:20.984Z,30.83
2023-05-01T04:23:49.006Z,29.33
2023-05-01T04:26:17.364Z,29.90
2023-05-01T04:28:45.426Z,28.50
2023-05-01T04:31:13.749Z,29.73
2023-05-01T04:33:43.194Z,30.13
2023-05-01T04:36:11.481Z,38.97
2023-05-01T04:38:39.554Z,34.30
2023-05-01T04:41:07.619Z,32.40
2023-05-01T04:43:35.787Z,35.83
2023-05-01T04:46:04.834Z,37.07
2023-05-01T04:48:32.873Z,40.00
2023-05-01T04:51:03.660Z,41.40
2023-05-01T04:53:32.045Z,43.80
2023-05-01T04:56:00.148Z,45.20
2023-05-01T04:58:28.166Z,45.40
2023-05-01T05:00:56.569Z,47.70
2023-05-01T05:03:24.709Z,45.57
2023-05-01T05:05:54.318Z,47.47
2023-05-01T05:08:23.735Z,50.73
2023-05-01T05:10:57.331Z,50.53
2023-05-01T05:13:25.373Z,49.17
2023-05-01T05:15:53.606Z,53.07
2023-05-01T05:18:21.811Z,52.43
2023-05-01T05:20:49.867Z,52.87
2023-05-01T05:23:17.894Z,58.67
2023-05-01T05:25:47.287Z,59.20
2023-05-01T05:28:15.285Z,57.10
2023-05-01T05:30:43.314Z,61.07
2023-05-01T05:33:11.442Z,60.83
2023-05-01T05:35:39.489Z,59.00
2023-05-01T05:38:07.518Z,69.23
2023-05-01T05:40:35.598Z,68.10
2023-05-01T05:43:05.063Z,71.20
2023-05-01T05:45:35.664Z,69.13
2023-05-01T05:48:03.874Z,66.97
2023-05-01T05:50:31.900Z,78.63
2023-05-01T05:52:59.910Z,76.10
2023-05-01T05:55:28.103Z,83.60
2023-05-01T05:57:56.170Z,84.27
2023-05-01T06:00:25.773Z,86.77
2023-05-01T06:02:53.860Z,85.77
2023-05-01T06:05:22.380Z,93.30
2023-05-01T06:07:51.176Z,91.17
2023-05-01T06:10:19.382Z,92.10
2023-05-01T06:12:48.604Z,91.90
2023-05-01T06:15:29.548Z,96.73
2023-05-01T06:17:58.346Z,91.60
2023-05-01T06:20:26.562Z,93.30
2023-05-01T06:22:54.715Z,89.80
2023-05-01T06:25:24.000Z,96.97
2023-05-01T06:27:52.131Z,98.93
2023-05-01T06:30:21.217Z,101.47
2023-05-01T06:32:50.833Z,103.67
2023-05-01T06:35:18.984Z,100.33
2023-05-01T06:37:47.104Z,102.27
2023-05-01T06:40:15.367Z,104.07
2023-05-01T06:42:43.471Z,107.17
2023-05-01T06:45:11.628Z,107.10
2023-05-01T06:47:39.797Z,106.33
2023-05-01T06:50:11.148Z,107.77
2023-05-01T06:52:39.231Z,108.37
2023-05-01T06:55:07.778Z,112.00
2023-05-01T06:57:35.852Z,114.90
2023-05-01T07:00:04.527Z,95.67
2023-05-01T07:02:32.582Z,93.77
2023-05-01T07:05:01.144Z,90.83
2023-05-01T07:07:30.880Z,93.13
2023-05-01T07:09:59.475Z,99.67
2023-05-01T07:12:27.781Z,107.47
2023-05-01T07:14:56.920Z,115.30
2023-05-01T07:17:25.115Z,112.13
2023-05-01T07:19:53.333Z,120.60
2023-05-01T07:22:21.384Z,120.07
2023-05-01T07:24:50.777Z,108.77
2023-05-01T07:27:18.868Z,128.10
2023-05-01T07:29:46.881Z,124.03
2023-05-01T07:32:15.255Z,108.37
2023-05-01T07:34:43.306Z,119.20
2023-05-01T07:37:11.376Z,122.23
2023-05-01T07:39:39.391Z,130.80
2023-05-01T07:42:08.917Z,145.53
2023-05-01T07:44:37.115Z,144.87
2023-05-01T07:47:05.748Z,153.70
2023-05-01T07:49:37.854Z,162.40
2023-05-01T07:52:07.153Z,150.03
2023-05-01T07:54:35.188Z,160.68
2023-05-01T07:57:04.457Z,170.23
2023-05-01T07:59:33.862Z,171.82
2023-05-01T08:02:02.149Z,181.23
2023-05-01T08:04:31.034Z,146.57
2023-05-01T08:06:59.230Z,168.98
2023-05-01T08:09:27.298Z,171.23
2023-05-01T08:11:55.412Z,183.18
2023-05-01T08:14:23.548Z,192.50
2023-05-01T08:16:55.345Z,172.10
2023-05-01T08:19:24.412Z,198.82
2023-05-01T08:21:52.404Z,181.82
2023-05-01T08:24:21.733Z,227.82
2023-05-01T08:26:49.801Z,191.70
2023-05-01T08:29:17.922Z,229.57
2023-05-01T08:31:46.763Z,210.77
2023-05-01T08:34:17.380Z,201.30
2023-05-01T08:36:45.784Z,186.05
2023-05-01T08:39:15.283Z,217.10
2023-05-01T08:41:46.619Z,225.05
2023-05-01T08:44:16.723Z,246.27
2023-05-01T08:46:49.624Z,179.70
2023-05-01T08:49:19.815Z,189.57
2023-05-01T08:51:48.556Z,215.40
2023-05-01T08:54:17.775Z,208.98
2023-05-01T08:56:47.858Z,253.35
2023-05-01T08:59:17.231Z,176.27
2023-05-01T09:01:47.207Z,125.55
2023-05-01T09:04:17.453Z,79.30
2023-05-01T09:06:47.013Z,96.00
2023-05-01T09:09:15.068Z,74.07
2023-05-01T09:11:45.936Z,97.82
2023-05-01T09:14:14.034Z,196.40
2023-05-01T09:16:42.382Z,189.73
2023-05-01T09:19:11.271Z,169.90
2023-05-01T09:21:39.568Z,225.82
2023-05-01T09:24:09.087Z,243.70
2023-05-01T09:26:41.929Z,247.32
2023-05-01T09:29:10.350Z,256.15
2023-05-01T09:31:38.811Z,251.85
2023-05-01T09:34:08.406Z,256.50
2023-05-01T09:36:37.544Z,267.08
2023-05-01T09:39:05.681Z,263.20
2023-05-01T09:41:35.886Z,266.55
2023-05-01T09:44:04.393Z,272.95
2023-05-01T09:46:42.751Z,271.00
2023-05-01T09:49:11.113Z,277.02
2023-05-01T09:51:39.578Z,292.98
2023-05-01T09:54:19.597Z,284.52
2023-05-01T09:56:49.916Z,283.30
2023-05-01T09:59:20.338Z,297.10
2023-05-01T10:01:50.538Z,296.35
2023-05-01T10:04:19.087Z,293.13
2023-05-01T10:06:47.338Z,301.58
2023-05-01T10:09:28.775Z,301.10
2023-05-01T10:11:59.418Z,302.25
2023-05-01T10:14:29.801Z,306.25
2023-05-01T10:16:58.307Z,310.67
2023-05-01T10:19:26.984Z,313.20
2023-05-01T10:21:55.113Z,316.92
2023-05-01T10:24:23.587Z,312.00
2023-05-01T10:26:53.732Z,306.08
2023-05-01T10:29:25.380Z,312.95
2023-05-01T10:31:53.499Z,294.00
2023-05-01T10:34:26.227Z,311.65
2023-05-01T10:37:01.634Z,309.77
2023-05-01T10:39:33.698Z,280.10
2023-05-01T10:42:03.740Z,271.75
2023-05-01T10:44:35.264Z,268.52
2023-05-01T10:47:37.850Z,259.25
2023-05-01T10:50:07.123Z,264.98
2023-05-01T10:53:08.613Z,283.00
2023-05-01T10:55:37.345Z,272.33
2023-05-01T10:58:05.421Z,278.73
2023-05-01T11:00:38.025Z,293.45
2023-05-01T11:03:37.162Z,323.73
2023-05-01T11:06:09.168Z,296.27
2023-05-01T11:08:38.792Z,320.83
2023-05-01T11:11:44.517Z,308.35
2023-05-01T11:14:12.530Z,317.45
2023-05-01T11:16:49.907Z,335.20
2023-05-01T11:19:48.696Z,321.52
2023-05-01T11:22:17.103Z,328.60
2023-05-01T11:24:45.261Z,336.73
2023-05-01T11:27:18.363Z,341.88
2023-05-01T11:29:48.494Z,355.23
2023-05-01T11:32:20.871Z,358.98
2023-05-01T11:34:51.132Z,357.73
2023-05-01T11:37:19.371Z,367.25
2023-05-01T11:39:52.184Z,389.00
2023-05-01T11:42:23.438Z,392.08
2023-05-01T11:45:07.882Z,408.65
2023-05-01T11:47:37.516Z,411.05
2023-05-01T11:50:06.488Z,412.70
2023-05-01T11:52:44.616Z,438.77
2023-05-01T11:55:12.894Z,442.83
2023-05-01T11:57:52.748Z,463.15
2023-05-01T12:00:29.784Z,461.00
2023-05-01T12:03:01.067Z,464.25
2023-05-01T12:05:31.085Z,474.10
2023-05-01T12:08:09.652Z,468.05
2023-05-01T12:10:38.716Z,461.13
2023-05-01T12:13:08.248Z,465.40
2023-05-01T12:15:38.204Z,463.17
2023-05-01T12:18:07.994Z,468.48
2023-05-01T12:20:37.798Z,458.77
2023-05-01T12:23:06.737Z,451.27
2023-05-01T12:25:35.596Z,445.08
2023-05-01T12:28:05.167Z,450.67
2023-05-01T12:30:33.510Z,454.40
2023-05-01T12:33:09.042Z,448.13
2023-05-01T12:35:39.262Z,451.42
2023-05-01T12:38:15.306Z,445.98
2023-05-01T12:40:53.779Z,446.67
2023-05-01T12:43:24.844Z,451.90
2023-05-01T12:45:54.468Z,474.55
2023-05-01T12:48:22.830Z,478.67
2023-05-01T12:50:54.954Z,483.77
2023-05-01T12:53:23.885Z,500.73
2023-05-01T12:55:53.560Z,491.80
2023-05-01T12:58:21.909Z,507.88
2023-05-01T13:00:51.310Z,520.20
2023-05-01T13:03:25.162Z,521.33
2023-05-01T13:05:57.511Z,548.75
2023-05-01T13:08:30.785Z,543.75
2023-05-01T13:11:00.304Z,545.08
2023-05-01T13:13:29.582Z,535.92
2023-05-01T13:16:09.054Z,557.60
2023-05-01T13:18:44.807Z,550.95
2023-05-01T13:21:16.301Z,541.78
2023-05-01T13:23:53.212Z,549.50
2023-05-01T13:26:27.470Z,536.42
2023-05-01T13:28:55.801Z,544.10
2023-05-01T13:31:23.940Z,538.58
2023-05-01T13:33:54.219Z,537.47
2023-05-01T13:36:26.582Z,544.15
2023-05-01T13:38:57.242Z,530.75
2023-05-01T13:41:26.837Z,529.67
2023-05-01T13:43:57.171Z,522.00
2023-05-01T13:46:27.350Z,527.80
2023-05-01T13:48:56.309Z,526.65
2023-05-01T13:51:27.200Z,529.78
2023-05-01T13:53:56.754Z,522.78
2023-05-01T13:56:24.870Z,535.95
2023-05-01T13:58:53.195Z,546.05
2023-05-01T14:01:23.365Z,544.63
2023-05-01T14:03:51.731Z,548.13
2023-05-01T14:06:23.074Z,566.42
2023-05-01T14:08:54.238Z,566.53
2023-05-01T14:11:22.246Z,559.85
2023-05-01T14:13:53.602Z,566.45
2023-05-01T14:16:27.137Z,562.72
2023-05-01T14:18:57.241Z,551.85
2023-05-01T14:21:27.935Z,540.58
2023-05-01T14:23:58.275Z,541.28
2023-05-01T14:26:26.782Z,540.80
2023-05-01T14:28:55.770Z,527.40
2023-05-01T14:31:28.464Z,523.10
2023-05-01T14:33:58.602Z,517.38
2023-05-01T14:36:31.060Z,515.15
2023-05-01T14:39:01.501Z,513.28
2023-05-01T14:41:30.173Z,517.78
2023-05-01T14:43:58.566Z,516.88
2023-05-01T14:46:31.567Z,510.48
2023-05-01T14:49:00.116Z,507.63
2023-05-01T14:51:28.891Z,509.35
2023-05-01T14:53:56.933Z,509.67
2023-05-01T14:56:26.430Z,508.08
2023-05-01T14:58:54.563Z,506.00
2023-05-01T15:01:22.701Z,507.50
2023-05-01T15:03:50.976Z,496.52
2023-05-01T15:06:19.119Z,488.90
2023-05-01T15:08:47.337Z,498.73
2023-05-01T15:11:16.658Z,477.08
2023-05-01T15:13:46.227Z,485.15
2023-05-01T15:16:14.462Z,492.73
2023-05-01T15:18:42.545Z,492.45
2023-05-01T15:21:10.869Z,490.52
2023-05-01T15:23:38.821Z,496.10
2023-05-01T15:26:07.129Z,502.80
2023-05-01T15:28:35.146Z,503.42
2023-05-01T15:31:04.641Z,512.75
2023-05-01T15:33:32.714Z,514.60
2023-05-01T15:36:00.827Z,524.38
2023-05-01T15:38:30.172Z,526.25
2023-05-01T15:40:58.336Z,532.92
2023-05-01T15:43:26.538Z,530.95
2023-05-01T15:45:57.882Z,538.45
2023-05-01T15:48:27.540Z,536.83
2023-05-01T15:50:55.578Z,538.60
2023-05-01T15:53:24.459Z,535.60
2023-05-01T15:55:53.318Z,543.22
2023-05-01T15:58:24.899Z,540.60
2023-05-01T16:00:53.149Z,532.05
2023-05-01T16:03:21.666Z,525.70
2023-05-01T16:05:51.410Z,541.13
2023-05-01T16:08:19.819Z,537.10
2023-05-01T16:10:47.808Z,529.83
2023-05-01T16:13:15.888Z,530.67
2023-05-01T16:15:43.973Z,525.40
2023-05-01T16:18:20.358Z,529.92
2023-05-01T16:20:48.385Z,531.20
2023-05-01T16:23:17.881Z,533.40
2023-05-01T16:25:46.050Z,524.92
2023-05-01T16:28:15.519Z,529.92
2023-05-01T16:30:43.779Z,529.72
2023-05-01T16:33:18.393Z,547.70
2023-05-01T16:35:49.587Z,554.95
2023-05-01T16:38:19.932Z,560.45
2023-05-01T16:40:49.137Z,569.90
2023-05-01T16:43:17.400Z,572.15
2023-05-01T16:45:46.985Z,581.95
2023-05-01T16:48:21.682Z,574.25
2023-05-01T16:50:49.845Z,577.80
2023-05-01T16:53:19.303Z,587.60
2023-05-01T16:55:47.383Z,584.20
2023-05-01T16:58:15.389Z,576.60
2023-05-01T17:00:43.813Z,571.45
2023-05-01T17:03:12.015Z,564.03
2023-05-01T17:05:40.178Z,555.38
2023-05-01T17:08:08.319Z,555.70
2023-05-01T17:10:38.502Z,556.90
2023-05-01T17:13:07.760Z,542.80
2023-05-01T17:15:35.746Z,538.55
2023-05-01T17:18:03.794Z,533.90
2023-05-01T17:20:31.990Z,511.92
2023-05-01T17:23:00.059Z,497.95
2023-05-01T17:25:28.132Z,517.45
2023-05-01T17:27:59.100Z,482.55
2023-05-01T17:30:27.210Z,482.30
2023-05-01T17:32:55.284Z,469.73
2023-05-01T17:35:23.467Z,467.70
2023-05-01T17:37:51.745Z,462.88
2023-05-01T17:40:20.019Z,464.23
2023-05-01T17:42:48.185Z,453.25
2023-05-01T17:45:17.691Z,462.02
2023-05-01T17:47:46.597Z,458.83
2023-05-01T17:50:15.569Z,452.67
2023-05-01T17:52:45.035Z,444.95
2023-05-01T17:55:14.382Z,435.42
2023-05-01T17:57:44.590Z,430.92
2023-05-01T18:00:13.621Z,410.45
2023-05-01T18:02:44.942Z,419.52
2023-05-01T18:05:13.590Z,422.30
2023-05-01T18:07:42.287Z,415.17
2023-05-01T18:10:14.022Z,421.13
2023-05-01T18:12:43.498Z,421.08
2023-05-01T18:15:14.701Z,408.17
2023-05-01T18:17:46.959Z,403.00
2023-05-01T18:20:15.030Z,391.42
2023-05-01T18:22:43.117Z,399.25
2023-05-01T18:25:11.343Z,394.33
2023-05-01T18:27:41.817Z,389.90
2023-05-01T18:30:11.522Z,380.67
2023-05-01T18:32:46.947Z,370.92
2023-05-01T18:35:18.586Z,368.58
2023-05-01T18:37:47.236Z,369.23
2023-05-01T18:40:15.496Z,359.33
2023-05-01T18:42:43.825Z,356.80
2023-05-01T18:45:13.077Z,343.87
2023-05-01T18:47:41.383Z,343.43
2023-05-01T18:50:11.712Z,339.60
2023-05-01T18:52:41.847Z,347.48
2023-05-01T18:55:11.338Z,343.60
2023-05-01T18:57:41.733Z,339.57
2023-05-01T19:00:11.258Z,332.27
2023-05-01T19:02:39.564Z,332.50
2023-05-01T19:05:08.739Z,311.90
2023-05-01T19:07:37.009Z,317.37
2023-05-01T19:10:07.504Z,310.53
2023-05-01T19:12:35.778Z,308.47
2023-05-01T19:15:03.904Z,309.13
2023-05-01T19:17:32.072Z,317.67
2023-05-01T19:20:02.413Z,307.57
2023-05-01T19:22:30.636Z,310.67
2023-05-01T19:25:00.141Z,298.57
2023-05-01T19:27:29.824Z,296.10
2023-05-01T19:30:00.896Z,294.83
2023-05-01T19:32:29.542Z,288.67
2023-05-01T19:34:57.663Z,285.90
2023-05-01T19:37:27.359Z,282.30
2023-05-01T19:39:55.445Z,280.23
2023-05-01T19:42:23.531Z,276.70
2023-05-01T19:44:53.085Z,278.57
2023-05-01T19:47:21.378Z,272.07
2023-05-01T19:49:49.437Z,283.43
2023-05-01T19:52:17.601Z,276.37
2023-05-01T19:54:45.762Z,273.17
2023-05-01T19:57:16.829Z,270.60
2023-05-01T19:59:45.014Z,255.00
2023-05-01T20:02:15.043Z,259.40
2023-05-01T20:04:43.245Z,260.23
2023-05-01T20:07:11.390Z,255.63
2023-05-01T20:09:39.497Z,247.00
2023-05-01T20:12:07.536Z,250.43
2023-05-01T20:14:35.616Z,247.00
2023-05-01T20:17:07.403Z,246.27
2023-05-01T20:19:39.631Z,244.30
2023-05-01T20:22:08.110Z,233.57
2023-05-01T20:24:36.169Z,241.60
2023-05-01T20:27:05.094Z,234.23
2023-05-01T20:29:33.478Z,240.47
2023-05-01T20:32:01.568Z,238.33
2023-05-01T20:34:29.656Z,231.00
2023-05-01T20:36:59.322Z,243.13
2023-05-01T20:39:27.440Z,230.63
2023-05-01T20:41:56.146Z,236.60
2023-05-01T20:44:24.198Z,229.00
2023-05-01T20:46:52.719Z,242.50
2023-05-01T20:49:21.426Z,221.70
2023-05-01T20:51:49.438Z,245.03
2023-05-01T20:54:18.791Z,246.90
2023-05-01T20:56:46.828Z,260.70
2023-05-01T20:59:14.934Z,241.43
2023-05-01T21:01:43.080Z,242.83
2023-05-01T21:04:11.205Z,237.13
2023-05-01T21:06:39.330Z,250.50
2023-05-01T21:09:08.618Z,245.53
2023-05-01T21:11:40.577Z,235.53
2023-05-01T21:14:08.775Z,235.77
2023-05-01T21:16:37.593Z,245.30
2023-05-01T21:19:06.852Z,244.40
2023-05-01T21:21:37.145Z,234.90
2023-05-01T21:24:07.334Z,234.83
2023-05-01T21:26:36.944Z,238.50
2023-05-01T21:29:04.940Z,234.40
2023-05-01T21:31:33.423Z,233.03
2023-05-01T21:34:03.416Z,231.67
2023-05-01T21:36:32.075Z,234.23
2023-05-01T21:39:01.794Z,231.03
2023-05-01T21:41:29.890Z,229.43
2023-05-01T21:43:59.294Z,230.67
2023-05-01T21:46:27.369Z,228.03
2023-05-01T21:48:55.452Z,244.07
2023-05-01T21:51:28.383Z,228.70
2023-05-01T21:53:56.497Z,235.33
2023-05-01T21:56:24.616Z,241.33
2023-05-01T21:58:52.667Z,229.40
2023-05-01T22:01:23.287Z,237.43
2023-05-01T22:03:51.537Z,232.03
2023-05-01T22:06:19.736Z,226.20
2023-05-01T22:08:47.864Z,221.80
2023-05-01T22:11:15.893Z,235.17
2023-05-01T22:13:43.928Z,220.43
2023-05-01T22:16:13.853Z,218.77
2023-05-01T22:18:43.236Z,219.37
2023-05-01T22:21:11.286Z,224.40
2023-05-01T22:23:39.319Z,219.37
2023-05-01T22:26:07.422Z,220.40
2023-05-01T22:28:35.412Z,222.33
2023-05-01T22:31:03.449Z,220.33
2023-05-01T22:33:31.906Z,216.83
2023-05-01T22:36:01.302Z,218.87
2023-05-01T22:38:29.284Z,219.87
2023-05-01T22:40:57.304Z,215.03
2023-05-01T22:43:25.444Z,224.23
2023-05-01T22:45:53.568Z,230.60
2023-05-01T22:48:21.712Z,224.13
2023-05-01T22:50:49.743Z,224.83
2023-05-01T22:53:19.100Z,213.70
2023-05-01T22:55:47.112Z,220.17
2023-05-01T22:58:15.109Z,206.50
2023-05-01T23:00:43.226Z,209.87
2023-05-01T23:03:11.821Z,203.43
2023-05-01T23:05:39.904Z,207.20
2023-05-01T23:08:07.955Z,203.50
2023-05-01T23:10:42.538Z,205.10
2023-05-01T23:13:18.748Z,212.77
2023-05-01T23:15:49.882Z,216.30
2023-05-01T23:18:23.600Z,211.87
2023-05-01T23:20:52.836Z,218.23
2023-05-01T23:23:22.094Z,213.50
2023-05-01T23:25:52.781Z,219.07
2023-05-01T23:28:24.657Z,213.97
2023-05-01T23:30:56.523Z,214.90
2023-05-01T23:33:26.017Z,218.03
2023-05-01T23:35:54.143Z,227.40
2023-05-01T23:38:22.207Z,222.20
2023-05-01T23:40:51.127Z,226.90
2023-05-01T23:43:21.231Z,224.53
2023-05-01T23:45:49.596Z,221.27
2023-05-01T23:48:17.642Z,221.63
2023-05-01T23:50:45.730Z,221.53
2023-05-01T23:53:13.763Z,213.33
2023-05-01T23:55:44.655Z,217.37
2023-05-01T23:58:14.109Z,214.27
